Terminal Aerodrome Forecast
Issued by NWS Charleston, WV

Current Version | Previous Version | Graphics & Text | Print | Product List | Glossary On
Versions: 1 2 3 4 5 6 7 8 9 10 11 12 13 14 15 16 17 18 19 20 21 22 23 24 25 26 27
000
FTUS41 KRLX 250800 AAA
TAFEKN
TAF AMD
KEKN 250843Z 2509/2606 00000KT P6SM BKN080
     FM251700 16004KT 5SM SHRA OVC035
     FM252000 13004KT 3SM SHRA OVC030
     FM252300 13005KT 5SM SHRA BR OVC030=

USA.gov is the U.S. government's official web portal to all federal, state and local government web resources and services.